Time;durP1;ratioP1;P1;durP2;ratioP2;P2;SDS_P1;SDS_P2;PMS_P1;PMS_P2;Temp;Humidity;BMP_temperature;BMP_pressure;BME280_temperature;BME280_humidity;BME280_pressure;Samples;Min_cycle;Max_cycle;Signal;HPM_P1;HPM_P2
2022/09/29 00:00:04;;;;;;;6.30;5.70;;;;;;;10.07;50.74;98924.94;10419397;28;20242;-80
2022/09/29 00:05:26;;;;;;;6.70;5.63;;;;;;;10.37;50.21;98919.59;10419341;28;20212;-79
2022/09/29 00:10:49;;;;;;;7.47;5.60;;;;;;;10.17;50.36;98921.56;10421431;28;20267;-79
2022/09/29 00:16:11;;;;;;;7.17;6.37;;;;;;;10.07;50.23;98927.75;10418284;28;20207;-79
2022/09/29 00:21:33;;;;;;;6.20;5.60;;;;;;;9.76;51.24;98928.63;10401115;28;20196;-80
2022/09/29 00:26:56;;;;;;;7.20;6.10;;;;;;;9.99;50.31;98913.88;10442286;28;20281;-79
2022/09/29 00:32:18;;;;;;;6.90;5.83;;;;;;;10.14;50.07;98910.22;10416962;28;20474;-80
2022/09/29 00:37:40;;;;;;;7.03;6.33;;;;;;;10.20;49.68;98908.72;10417037;28;20246;-80
2022/09/29 00:43:02;;;;;;;7.13;5.63;;;;;;;10.19;49.76;98915.53;10415689;28;20251;-79
2022/09/29 00:48:30;;;;;;;6.47;5.87;;;;;;;10.63;48.52;98918.16;10417442;28;20212;-79
2022/09/29 00:53:52;;;;;;;6.43;5.50;;;;;;;10.23;49.08;98916.44;10416711;28;20192;-80
2022/09/29 00:59:20;;;;;;;7.53;5.90;;;;;;;10.19;49.77;98924.00;10389364;28;20193;-80
2022/09/29 01:04:42;;;;;;;7.37;6.03;;;;;;;9.76;51.01;98934.25;10416513;28;20485;-79
2022/09/29 01:10:05;;;;;;;7.70;6.30;;;;;;;9.61;51.61;98925.78;10416299;28;20552;-79
2022/09/29 01:15:28;;;;;;;7.27;6.50;;;;;;;10.16;49.51;98922.75;10416921;28;20787;-79
2022/09/29 01:20:57;;;;;;;8.50;6.47;;;;;;;10.26;49.57;98924.16;10416458;28;20185;-80
2022/09/29 01:26:26;;;;;;;7.57;6.27;;;;;;;10.45;49.09;98929.00;10402517;28;20229;-79
2022/09/29 01:32:07;;;;;;;7.83;6.40;;;;;;;9.91;50.80;98940.22;10417604;28;20185;-80
2022/09/29 01:37:42;;;;;;;7.90;7.20;;;;;;;9.87;50.99;98934.50;10424523;28;20189;-79
2022/09/29 01:43:08;;;;;;;7.73;6.70;;;;;;;10.00;50.52;98932.41;10421971;28;20204;-80
2022/09/29 01:48:39;;;;;;;7.50;6.80;;;;;;;9.63;51.58;98941.16;10402948;28;20264;-80
2022/09/29 01:54:05;;;;;;;9.07;7.67;;;;;;;9.71;51.32;98937.34;10423078;28;20585;-80
2022/09/29 02:00:10;;;;;;;9.67;7.33;;;;;;;9.51;51.60;98944.03;10422911;28;20181;-79
2022/09/29 02:05:42;;;;;;;8.57;7.67;;;;;;;10.02;50.22;98927.22;10422436;28;20259;-79
2022/09/29 02:11:06;;;;;;;9.63;7.70;;;;;;;10.22;49.44;98934.53;10421926;28;20220;-79
2022/09/29 02:16:30;;;;;;;9.33;7.80;;;;;;;10.12;49.75;98924.66;10422904;28;20212;-80
2022/09/29 02:21:53;;;;;;;13.27;7.37;;;;;;;9.67;50.21;98935.59;10421810;28;20251;-79
2022/09/29 02:27:15;;;;;;;7.70;6.87;;;;;;;9.10;51.61;98946.16;10421013;28;20228;-80
2022/09/29 02:32:37;;;;;;;9.87;7.43;;;;;;;9.78;49.96;98945.16;10418587;28;20483;-78
2022/09/29 02:38:14;;;;;;;8.80;7.43;;;;;;;9.18;50.91;98943.53;10420941;28;20205;-79
2022/09/29 02:44:02;;;;;;;10.00;7.57;;;;;;;9.57;50.10;98948.19;10421004;28;20189;-79
2022/09/29 02:49:53;;;;;;;8.30;7.50;;;;;;;9.50;49.97;98948.03;10420579;28;20224;-79
2022/09/29 02:55:23;;;;;;;8.90;8.00;;;;;;;9.61;49.78;98948.28;10420445;28;20188;-79
2022/09/29 03:00:46;;;;;;;9.97;6.67;;;;;;;8.89;50.98;98956.78;10405748;28;20201;-79
2022/09/29 03:06:09;;;;;;;7.13;6.43;;;;;;;9.07;49.74;98951.66;10419686;28;20533;-79
2022/09/29 03:11:31;;;;;;;8.73;7.83;;;;;;;8.99;50.41;98950.66;10419831;28;20243;-80
2022/09/29 03:16:53;;;;;;;7.93;7.13;;;;;;;8.91;50.67;98948.00;10419780;28;20204;-79
2022/09/29 03:22:17;;;;;;;7.57;6.87;;;;;;;8.87;50.50;98939.47;10405448;28;20605;-79
2022/09/29 03:27:39;;;;;;;8.83;6.67;;;;;;;8.82;51.26;98945.34;10417835;28;20313;-80
2022/09/29 03:33:01;;;;;;;12.10;8.07;;;;;;;9.17;50.87;98933.44;10403848;28;20205;-79
2022/09/29 03:38:23;;;;;;;11.00;8.23;;;;;;;9.01;51.93;98937.03;10419841;28;20188;-80
2022/09/29 03:43:45;;;;;;;9.07;8.17;;;;;;;9.35;50.75;98946.00;10418765;28;20184;-80
2022/09/29 03:49:11;;;;;;;10.10;7.80;;;;;;;9.22;50.81;98944.44;10404830;28;20228;-79
2022/09/29 03:54:33;;;;;;;13.67;7.87;;;;;;;8.77;51.50;98948.41;10403553;28;20487;-79
2022/09/29 03:59:55;;;;;;;8.83;7.50;;;;;;;9.56;49.50;98940.94;10417817;28;20189;-79
2022/09/29 04:05:18;;;;;;;8.03;6.77;;;;;;;8.38;51.90;98945.22;10404290;28;20270;-80
2022/09/29 04:10:40;;;;;;;9.77;8.03;;;;;;;8.83;52.28;98955.41;10417538;28;20281;-80
2022/09/29 04:16:04;;;;;;;9.00;7.53;;;;;;;8.87;51.69;98956.34;10416355;28;20247;-79
2022/09/29 04:21:26;;;;;;;8.07;7.37;;;;;;;8.84;49.99;98959.03;10409534;28;20180;-79
2022/09/29 04:26:48;;;;;;;8.20;7.40;;;;;;;9.00;50.55;98963.53;10415112;28;20212;-80
2022/09/29 04:32:10;;;;;;;9.83;8.57;;;;;;;9.02;51.10;98969.59;10406699;28;20223;-79
2022/09/29 04:37:32;;;;;;;9.97;7.90;;;;;;;8.89;50.77;98976.44;10404623;28;20229;-78
2022/09/29 04:42:54;;;;;;;11.50;8.57;;;;;;;9.24;49.75;98985.09;10411873;28;20219;-79
2022/09/29 04:48:16;;;;;;;9.13;8.23;;;;;;;8.88;51.07;98980.44;10405683;28;20278;-80
2022/09/29 04:53:38;;;;;;;9.00;8.10;;;;;;;8.83;51.43;98982.69;10397169;28;20747;-80
2022/09/29 04:59:00;;;;;;;9.70;8.07;;;;;;;8.47;52.06;98980.78;10398805;28;20299;-80
2022/09/29 05:04:22;;;;;;;10.50;9.43;;;;;;;8.76;51.60;98980.47;10392700;28;20290;-78
2022/09/29 05:09:45;;;;;;;10.53;8.73;;;;;;;9.15;50.40;98990.03;10385072;28;20317;-80
2022/09/29 05:15:07;;;;;;;9.37;8.13;;;;;;;9.09;49.51;98983.88;10428268;28;20228;-80
2022/09/29 05:20:29;;;;;;;9.00;8.00;;;;;;;8.81;49.37;98987.84;10407901;28;20690;-79
2022/09/29 05:25:51;;;;;;;10.47;8.30;;;;;;;8.92;49.27;99003.84;10427224;28;20298;-79
2022/09/29 05:31:14;;;;;;;9.23;8.00;;;;;;;8.75;49.94;98995.69;10424148;28;20236;-79
2022/09/29 05:36:36;;;;;;;8.10;7.23;;;;;;;8.94;48.79;99004.31;10427679;28;20242;-79
2022/09/29 05:41:58;;;;;;;11.67;8.30;;;;;;;8.41;49.88;99008.28;10421222;28;20258;-78
2022/09/29 05:47:23;;;;;;;10.03;7.93;;;;;;;8.67;49.51;99017.16;10397118;28;20568;-79
2022/09/29 05:52:48;;;;;;;9.13;8.23;;;;;;;8.88;49.18;99022.56;10421290;28;20197;-79
2022/09/29 05:58:10;;;;;;;8.53;7.73;;;;;;;8.79;49.21;99024.72;10421105;28;20204;-79
2022/09/29 06:03:34;;;;;;;8.93;8.03;;;;;;;9.02;48.93;99033.41;10395153;28;20200;-79
2022/09/29 06:08:57;;;;;;;8.73;7.53;;;;;;;8.01;51.49;99039.06;10406772;28;20216;-79
2022/09/29 06:14:19;;;;;;;12.73;8.90;;;;;;;8.83;49.94;99034.09;10422848;28;20213;-79
2022/09/29 06:19:42;;;;;;;14.40;9.30;;;;;;;9.13;49.29;99031.75;10402994;28;20236;-79
2022/09/29 06:25:04;;;;;;;11.70;9.33;;;;;;;8.75;49.86;99035.03;10423663;28;20228;-80
2022/09/29 06:30:26;;;;;;;9.80;8.80;;;;;;;9.07;49.74;99041.59;10420555;28;20617;-79
2022/09/29 06:41:28;;;;;;;11.07;9.87;;;;;;;9.45;49.68;99041.09;10417938;28;20603;-81
2022/09/29 06:46:51;;;;;;;14.30;9.50;;;;;;;8.96;51.49;99051.72;10417240;28;20223;-79
2022/09/29 06:52:13;;;;;;;11.93;9.57;;;;;;;8.92;51.52;99057.22;10423152;28;20704;-79
2022/09/29 06:57:36;;;;;;;11.87;9.90;;;;;;;9.11;51.10;99063.03;10425112;28;20188;-79
2022/09/29 07:02:59;;;;;;;11.30;9.97;;;;;;;9.58;49.80;99067.97;10416592;28;20592;-79
2022/09/29 07:08:21;;;;;;;10.23;9.03;;;;;;;9.61;50.20;99075.69;10393468;28;20220;-80
2022/09/29 07:13:43;;;;;;;10.13;9.10;;;;;;;9.32;51.51;99079.69;10403642;28;20287;-80
2022/09/29 07:19:05;;;;;;;13.13;9.03;;;;;;;10.05;49.70;99075.66;10396481;28;20196;-80
2022/09/29 07:24:27;;;;;;;9.63;8.53;;;;;;;9.70;50.51;99086.81;10421152;28;20228;-80
2022/09/29 07:29:50;;;;;;;11.40;8.63;;;;;;;10.16;49.21;99085.22;10378130;28;20300;-81
2022/09/29 07:35:12;;;;;;;9.97;8.60;;;;;;;11.13;47.29;99089.16;10403912;28;20204;-79
2022/09/29 07:40:34;;;;;;;9.47;6.83;;;;;;;10.98;47.15;99085.19;10417909;28;20239;-79
2022/09/29 07:45:56;;;;;;;9.37;7.77;;;;;;;10.42;48.98;99091.13;10415911;28;20227;-80
2022/09/29 07:51:19;;;;;;;8.23;7.37;;;;;;;10.84;48.32;99096.97;10417909;28;20274;-80
2022/09/29 07:56:41;;;;;;;9.33;8.20;;;;;;;11.03;47.84;99099.03;10418258;28;20242;-80
2022/09/29 08:02:03;;;;;;;11.33;7.80;;;;;;;10.86;48.35;99105.06;10402833;28;20200;-80
2022/09/29 08:07:25;;;;;;;10.20;7.47;;;;;;;10.85;47.81;99109.06;10410543;28;20254;-80
2022/09/29 08:12:47;;;;;;;8.23;7.43;;;;;;;11.17;48.01;99113.44;10417550;28;20220;-80
2022/09/29 08:18:09;;;;;;;7.43;6.73;;;;;;;11.45;46.92;99115.22;10403821;28;20246;-80
2022/09/29 08:23:38;;;;;;;7.60;6.07;;;;;;;11.60;47.41;99103.09;10417138;28;20188;-80
2022/09/29 08:29:03;;;;;;;7.97;7.07;;;;;;;11.54;47.44;99107.38;10416265;28;20301;-80
2022/09/29 08:34:25;;;;;;;10.17;6.80;;;;;;;12.46;44.50;99108.31;10417883;28;20477;-80
2022/09/29 08:39:47;;;;;;;8.13;6.33;;;;;;;12.24;45.57;99107.13;10417028;28;20180;-81
2022/09/29 08:45:13;;;;;;;5.97;5.37;;;;;;;12.10;44.19;99123.81;10425329;28;20207;-80
2022/09/29 08:50:42;;;;;;;6.10;5.50;;;;;;;13.79;41.93;99121.97;10425285;28;20212;-80
2022/09/29 08:56:08;;;;;;;5.17;4.67;;;;;;;13.32;43.12;99117.72;10421720;28;20200;-80
2022/09/29 09:01:41;;;;;;;5.70;5.07;;;;;;;12.57;43.24;99127.09;10411006;28;20617;-80
2022/09/29 09:07:10;;;;;;;8.17;5.17;;;;;;;12.72;43.73;99132.97;10424885;28;20192;-80
2022/09/29 09:12:54;;;;;;;6.60;4.37;;;;;;;12.55;42.63;99137.94;10425186;28;20213;-81
2022/09/29 09:18:37;;;;;;;5.27;4.33;;;;;;;12.77;42.31;99146.81;10425160;28;20234;-81
2022/09/29 09:24:04;;;;;;;4.53;3.80;;;;;;;13.21;41.88;99144.25;10405301;28;20637;-80
2022/09/29 09:29:39;;;;;;;5.27;3.10;;;;;;;13.82;41.25;99141.00;10406069;28;20220;-80
2022/09/29 09:35:39;;;;;;;4.20;2.30;;;;;;;13.28;40.79;99144.38;10417208;28;20246;-80
2022/09/29 09:41:02;;;;;;;3.77;2.63;;;;;;;14.04;38.75;99137.25;10420301;28;20219;-81
2022/09/29 09:46:26;;;;;;;5.70;2.90;;;;;;;14.21;39.79;99143.47;10421825;28;20201;-81
2022/09/29 09:52:02;;;;;;;7.43;3.40;;;;;;;13.00;41.39;99144.72;10403246;28;20221;-80
2022/09/29 09:57:18;;;;;;;6.10;3.47;;;;;;;12.93;42.43;99144.59;10418263;28;20258;-80
2022/09/29 10:02:44;;;;;;;5.30;2.73;;;;;;;13.82;39.15;99148.69;10391224;28;20259;-81
2022/09/29 10:08:13;;;;;;;3.17;2.60;;;;;;;13.68;39.43;99149.34;10408773;28;20485;-80
2022/09/29 10:13:35;;;;;;;4.87;2.30;;;;;;;14.77;37.66;99141.19;10399326;28;20539;-80
2022/09/29 10:18:57;;;;;;;4.30;2.30;;;;;;;15.73;36.18;99136.13;10404950;28;20205;-80
2022/09/29 10:24:20;;;;;;;2.97;1.77;;;;;;;13.96;37.41;99141.16;10418208;28;20294;-81
2022/09/29 10:29:48;;;;;;;1.73;1.33;;;;;;;14.26;36.24;99143.13;10418848;28;20678;-81
2022/09/29 10:35:28;;;;;;;1.57;1.23;;;;;;;14.70;35.52;99141.13;10406841;28;20196;-80
2022/09/29 10:40:53;;;;;;;4.93;1.93;;;;;;;14.30;38.08;99150.47;10366716;28;20331;-80
2022/09/29 10:46:48;;;;;;;5.77;2.17;;;;;;;13.67;40.21;99161.88;10395160;28;20208;-81
2022/09/29 10:52:22;;;;;;;3.83;1.57;;;;;;;14.64;38.37;99153.22;10405917;28;20357;-80
2022/09/29 10:57:46;;;;;;;1.30;1.20;;;;;;;14.42;36.84;99157.88;10405025;28;20525;-81
2022/09/29 11:03:20;;;;;;;2.27;0.90;;;;;;;14.40;35.92;99155.44;10420063;28;20655;-80
2022/09/29 11:09:25;;;;;;;2.80;1.60;;;;;;;15.40;35.63;99154.19;10414135;28;20215;-81
2022/09/29 11:14:47;;;;;;;3.00;1.60;;;;;;;14.86;35.54;99157.06;10404448;28;20232;-80
2022/09/29 11:20:13;;;;;;;1.73;1.20;;;;;;;15.27;34.59;99163.44;10404496;28;20676;-80
2022/09/29 11:25:46;;;;;;;2.87;1.40;;;;;;;14.64;36.71;99165.38;10417494;28;20628;-80
2022/09/29 11:31:27;;;;;;;1.80;1.10;;;;;;;14.31;36.68;99165.47;10402154;28;20220;-80
2022/09/29 11:37:05;;;;;;;2.53;0.93;;;;;;;14.68;36.96;99171.91;10413033;28;20585;-81
2022/09/29 11:42:43;;;;;;;2.57;1.00;;;;;;;15.67;34.45;99162.47;10415088;28;20200;-81
2022/09/29 11:48:24;;;;;;;1.70;0.80;;;;;;;16.32;33.15;99167.19;10403470;28;20227;-80
2022/09/29 11:54:02;;;;;;;2.08;0.90;;;;;;;15.20;34.96;99169.09;10418234;28;20298;-80
2022/09/29 11:59:50;;;;;;;2.93;0.70;;;;;;;15.78;34.03;99171.84;10403534;28;20379;-81
2022/09/29 12:05:42;;;;;;;2.25;0.93;;;;;;;16.18;33.48;99174.44;10415164;28;20258;-80
2022/09/29 12:11:33;;;;;;;3.40;1.58;;;;;;;15.70;33.37;99173.84;10413182;28;20239;-81
2022/09/29 12:17:03;;;;;;;3.33;0.97;;;;;;;15.44;33.40;99172.06;10411842;28;20228;-80
2022/09/29 12:22:27;;;;;;;1.83;0.70;;;;;;;15.89;34.00;99172.69;10415414;28;20613;-80
2022/09/29 12:27:51;;;;;;;2.20;0.80;;;;;;;15.17;32.92;99176.34;10401374;28;20224;-81
2022/09/29 12:33:20;;;;;;;2.37;0.80;;;;;;;15.59;34.47;99169.34;10402385;28;20640;-81
2022/09/29 12:38:44;;;;;;;3.57;0.93;;;;;;;15.29;31.29;99178.88;10391057;28;20192;-81
2022/09/29 12:44:14;;;;;;;3.40;0.83;;;;;;;16.16;31.89;99162.66;10414372;28;20196;-80
2022/09/29 12:49:54;;;;;;;2.77;0.93;;;;;;;15.83;32.99;99177.16;10414193;28;20505;-80
2022/09/29 12:55:20;;;;;;;2.10;0.80;;;;;;;15.75;32.10;99169.84;10411858;28;20613;-80
2022/09/29 13:00:44;;;;;;;3.93;1.10;;;;;;;15.32;35.02;99178.09;10410582;28;20247;-80
2022/09/29 13:06:24;;;;;;;1.50;0.80;;;;;;;16.79;32.47;99169.69;10414744;28;20227;-80
2022/09/29 13:12:09;;;;;;;1.87;0.80;;;;;;;15.38;33.10;99173.63;10401129;28;20617;-80
2022/09/29 13:17:40;;;;;;;5.37;1.00;;;;;;;14.31;33.63;99179.66;10409232;28;20212;-80
2022/09/29 13:23:19;;;;;;;1.77;0.90;;;;;;;14.88;34.87;99192.34;10416227;28;20219;-80
2022/09/29 13:28:48;;;;;;;1.20;0.97;;;;;;;16.09;33.80;99178.88;10415378;28;20533;-80
2022/09/29 13:34:37;;;;;;;5.03;0.70;;;;;;;15.76;33.22;99185.63;10423955;28;20248;-80
2022/09/29 13:40:06;;;;;;;1.77;0.70;;;;;;;15.84;30.84;99184.47;10446958;28;20200;-80
2022/09/29 13:45:33;;;;;;;6.30;1.00;;;;;;;15.16;34.26;99191.75;10417101;28;20254;-80
2022/09/29 13:50:55;;;;;;;6.10;1.13;;;;;;;16.49;32.05;99187.13;10416722;28;20278;-80
2022/09/29 13:56:19;;;;;;;4.97;1.03;;;;;;;16.44;33.99;99195.25;10409662;28;20199;-80
2022/09/29 14:01:42;;;;;;;2.17;0.50;;;;;;;16.40;32.34;99198.09;10406045;28;20220;-80
2022/09/29 14:07:06;;;;;;;4.10;0.90;;;;;;;16.16;31.50;99201.63;10418263;28;20232;-80
2022/09/29 14:12:28;;;;;;;1.70;0.60;;;;;;;16.02;31.20;99205.22;10418917;28;20502;-80
2022/09/29 14:17:57;;;;;;;2.03;0.50;;;;;;;16.19;31.98;99204.50;10398318;28;20271;-80
2022/09/29 14:23:44;;;;;;;2.03;0.63;;;;;;;15.98;33.61;99209.28;10419594;28;20193;-80
2022/09/29 14:29:23;;;;;;;2.23;1.00;;;;;;;16.16;35.16;99216.66;10411528;28;20224;-79
2022/09/29 14:34:46;;;;;;;2.93;1.17;;;;;;;15.46;35.30;99219.94;10428888;28;20612;-79
2022/09/29 14:40:27;;;;;;;1.83;1.20;;;;;;;16.28;33.19;99231.78;10392722;28;20221;-79
2022/09/29 14:52:02;;;;;;;2.13;0.90;;;;;;;16.44;34.67;99238.72;10399845;28;20232;-79
2022/09/29 14:57:45;;;;;;;2.67;1.55;;;;;;;16.19;34.30;99244.28;10410120;28;20274;-80
2022/09/29 15:03:07;;;;;;;4.60;1.07;;;;;;;16.46;32.56;99241.97;10432771;28;20278;-79
2022/09/29 15:08:35;;;;;;;2.63;1.10;;;;;;;16.45;33.71;99245.22;10405158;28;20224;-80
2022/09/29 15:13:58;;;;;;;2.47;0.80;;;;;;;16.24;32.70;99243.13;10405375;28;20679;-81
2022/09/29 15:19:30;;;;;;;2.53;0.83;;;;;;;16.45;31.72;99243.19;10401229;28;20262;-80
2022/09/29 15:24:59;;;;;;;4.53;3.33;;;;;;;16.13;32.24;99251.59;10417572;28;20224;-79
2022/09/29 15:30:24;;;;;;;2.17;1.47;;;;;;;15.94;32.61;99254.75;10419071;28;20212;-79
2022/09/29 15:35:55;;;;;;;0.80;0.63;;;;;;;16.44;31.32;99243.59;10406730;28;20533;-79
2022/09/29 15:41:22;;;;;;;1.57;0.50;;;;;;;16.26;32.27;99246.41;10420017;28;20203;-80
2022/09/29 15:46:51;;;;;;;2.87;2.40;;;;;;;15.65;32.62;99261.47;10424895;28;20250;-79
2022/09/29 15:52:22;;;;;;;3.07;1.50;;;;;;;15.70;33.79;99261.09;10418860;28;20254;-79
2022/09/29 15:57:48;;;;;;;2.33;1.47;;;;;;;15.31;35.72;99272.97;10424741;28;20216;-79
2022/09/29 16:03:26;;;;;;;2.00;1.00;;;;;;;15.07;36.57;99282.09;10398792;28;20262;-79
2022/09/29 16:08:54;;;;;;;1.63;1.00;;;;;;;15.61;36.02;99281.34;10399691;28;20205;-79
2022/09/29 16:14:26;;;;;;;2.83;0.93;;;;;;;14.94;37.10;99294.94;10428534;28;20228;-79
2022/09/29 16:19:49;;;;;;;2.00;0.93;;;;;;;15.33;37.58;99298.13;10410981;28;20232;-79
2022/09/29 16:25:28;;;;;;;4.13;1.67;;;;;;;15.22;36.98;99309.41;10398377;28;20318;-80
2022/09/29 16:31:06;;;;;;;2.53;1.50;;;;;;;14.62;40.69;99318.09;10408324;28;20251;-79
2022/09/29 16:36:35;;;;;;;2.67;1.40;;;;;;;14.73;41.23;99324.69;10395937;28;21321;-80
2022/09/29 16:42:00;;;;;;;2.30;0.90;;;;;;;14.62;41.15;99323.75;10403603;28;20727;-80
2022/09/29 16:47:28;;;;;;;4.87;1.30;;;;;;;15.08;41.02;99332.81;10395924;28;20672;-80
2022/09/29 16:52:51;;;;;;;5.37;1.47;;;;;;;15.05;41.93;99338.44;10403169;28;20252;-79
2022/09/29 16:58:14;;;;;;;22.57;16.17;;;;;;;14.96;42.13;99340.78;10398794;28;20259;-79
2022/09/29 17:03:39;;;;;;;8.03;3.40;;;;;;;14.41;43.74;99352.69;10404499;28;20228;-79
2022/09/29 17:09:05;;;;;;;3.83;3.23;;;;;;;14.01;44.04;99352.53;10413339;28;20237;-80
2022/09/29 17:14:29;;;;;;;11.30;4.03;;;;;;;14.39;42.95;99352.25;10430844;28;20251;-79
2022/09/29 17:19:55;;;;;;;5.20;3.97;;;;;;;13.73;45.65;99367.03;10428538;28;20228;-79
2022/09/29 17:25:17;;;;;;;8.30;4.73;;;;;;;13.90;44.83;99369.34;10430201;28;20268;-81
2022/09/29 17:30:43;;;;;;;9.43;3.77;;;;;;;12.74;47.65;99374.56;10416431;28;20621;-78
2022/09/29 17:36:11;;;;;;;5.43;4.23;;;;;;;13.53;44.92;99376.84;10417853;28;20220;-78
2022/09/29 17:41:33;;;;;;;6.67;4.27;;;;;;;13.26;46.15;99387.28;10413542;28;20224;-78
2022/09/29 17:46:56;;;;;;;6.33;4.20;;;;;;;13.31;45.80;99390.59;10412823;28;20286;-79
2022/09/29 17:52:18;;;;;;;7.83;6.23;;;;;;;13.30;45.73;99394.63;10410253;28;20248;-78
2022/09/29 17:57:41;;;;;;;10.30;7.37;;;;;;;13.31;44.24;99396.25;10424650;28;20215;-78
2022/09/29 18:03:11;;;;;;;9.13;6.43;;;;;;;12.89;46.87;99409.59;10411226;28;20223;-78
2022/09/29 18:08:33;;;;;;;128.83;89.17;;;;;;;12.74;46.17;99416.16;10404113;28;20224;-79
2022/09/29 18:13:55;;;;;;;89.90;69.13;;;;;;;12.82;45.71;99420.75;10409160;28;20286;-78
2022/09/29 18:19:22;;;;;;;59.83;47.37;;;;;;;12.46;46.93;99438.97;10408014;28;20673;-79
2022/09/29 18:24:44;;;;;;;22.10;16.07;;;;;;;12.65;46.07;99439.78;10402362;28;20968;-79
2022/09/29 18:30:18;;;;;;;14.70;11.40;;;;;;;12.43;47.02;99451.00;10404090;28;20224;-78
2022/09/29 18:35:42;;;;;;;16.23;11.73;;;;;;;11.87;48.25;99459.75;10426387;28;20254;-78
2022/09/29 18:41:05;;;;;;;15.03;8.90;;;;;;;11.74;48.63;99459.03;10402115;28;20220;-80
2022/09/29 18:46:29;;;;;;;9.30;6.13;;;;;;;12.41;46.92;99464.69;10436487;28;20207;-79
2022/09/29 18:51:51;;;;;;;8.03;5.50;;;;;;;12.34;46.62;99471.81;10400281;28;20251;-80
2022/09/29 18:57:13;;;;;;;7.93;5.27;;;;;;;12.29;46.83;99489.03;10425826;28;20250;-78
2022/09/29 19:02:36;;;;;;;5.93;4.23;;;;;;;11.73;48.38;99482.81;10434748;28;20200;-79
2022/09/29 19:08:00;;;;;;;3.40;3.10;;;;;;;11.75;47.74;99491.72;10415976;28;20297;-79
2022/09/29 19:13:22;;;;;;;5.80;3.90;;;;;;;11.70;47.89;99494.84;10400977;28;20247;-79
2022/09/29 19:18:45;;;;;;;6.03;3.87;;;;;;;11.70;48.08;99494.00;10416075;28;20240;-79
2022/09/29 19:24:07;;;;;;;6.17;3.83;;;;;;;11.43;48.59;99506.97;10417070;28;20253;-80
2022/09/29 19:29:31;;;;;;;6.37;3.00;;;;;;;11.46;48.20;99511.91;10413458;28;20289;-79
2022/09/29 19:34:53;;;;;;;4.80;3.40;;;;;;;11.56;47.81;99517.03;10411176;28;20245;-79
2022/09/29 19:40:21;;;;;;;6.10;3.83;;;;;;;11.57;47.69;99522.31;10409048;28;20224;-80
2022/09/29 19:45:44;;;;;;;9.70;4.40;;;;;;;11.48;47.77;99529.25;10424088;28;20289;-79
2022/09/29 19:56:49;;;;;;;6.33;4.20;;;;;;;11.17;48.10;99542.13;10432985;28;20592;-80
2022/09/29 20:02:13;;;;;;;6.33;4.40;;;;;;;10.99;48.08;99543.59;10412811;28;21057;-79
2022/09/29 20:07:36;;;;;;;5.17;4.23;;;;;;;11.47;46.76;99545.41;10419520;28;20228;-80
2022/09/29 20:12:59;;;;;;;5.70;4.73;;;;;;;11.33;47.25;99544.19;10402663;28;20305;-79
2022/09/29 20:18:21;;;;;;;6.33;4.30;;;;;;;11.32;46.93;99559.47;10410655;28;20224;-78
2022/09/29 20:23:43;;;;;;;7.07;6.37;;;;;;;11.15;47.11;99578.34;10417320;28;20288;-79
2022/09/29 20:29:05;;;;;;;5.57;4.10;;;;;;;11.10;46.87;99577.75;10430264;28;20192;-77
2022/09/29 20:34:27;;;;;;;6.17;4.00;;;;;;;11.09;47.34;99582.56;10412193;28;20854;-78
2022/09/29 20:39:50;;;;;;;6.53;4.80;;;;;;;10.34;48.96;99596.28;10404450;28;20232;-78
2022/09/29 20:45:12;;;;;;;8.00;5.00;;;;;;;10.56;48.60;99597.81;10437155;28;20246;-78
2022/09/29 20:50:35;;;;;;;6.97;4.80;;;;;;;10.98;47.39;99604.00;10421653;28;20227;-78
2022/09/29 20:56:05;;;;;;;5.90;5.20;;;;;;;11.04;47.13;99602.56;10433091;28;20212;-78
2022/09/29 21:01:29;;;;;;;5.90;4.83;;;;;;;10.18;48.84;99606.59;10442560;28;20187;-78
2022/09/29 21:06:51;;;;;;;6.70;4.43;;;;;;;10.79;47.63;99606.63;10434289;28;20266;-79
2022/09/29 21:12:13;;;;;;;5.80;4.27;;;;;;;9.74;50.11;99633.63;10428388;28;20279;-78
2022/09/29 21:17:35;;;;;;;9.33;4.73;;;;;;;10.37;48.73;99623.75;10423617;28;20265;-78
2022/09/29 21:22:57;;;;;;;7.80;5.20;;;;;;;10.16;48.90;99634.31;10438394;28;20188;-78
2022/09/29 21:28:19;;;;;;;6.47;4.77;;;;;;;10.15;48.53;99638.28;10432765;28;20275;-78
2022/09/29 21:33:42;;;;;;;8.37;5.13;;;;;;;9.94;48.69;99638.34;10423095;28;20267;-78
2022/09/29 21:39:04;;;;;;;5.57;4.00;;;;;;;9.91;49.19;99639.06;10436209;28;20531;-78
2022/09/29 21:44:26;;;;;;;6.17;5.00;;;;;;;10.20;48.10;99646.50;10425514;28;20214;-78
2022/09/29 21:49:48;;;;;;;6.23;4.97;;;;;;;10.37;47.94;99643.47;10416084;28;20246;-79
2022/09/29 21:55:11;;;;;;;7.97;5.57;;;;;;;10.27;48.10;99648.75;10409419;28;20224;-78
2022/09/29 22:00:33;;;;;;;8.30;5.07;;;;;;;10.21;47.95;99651.78;10423156;28;20439;-78
2022/09/29 22:05:55;;;;;;;8.50;4.40;;;;;;;10.03;48.30;99650.38;10422872;28;20234;-78
2022/09/29 22:11:19;;;;;;;4.43;4.03;;;;;;;9.29;50.10;99667.25;10422304;28;20593;-78
2022/09/29 22:16:41;;;;;;;6.90;4.50;;;;;;;9.59;49.12;99666.00;10419379;28;20228;-79
2022/09/29 22:22:03;;;;;;;6.80;4.37;;;;;;;9.09;50.99;99669.75;10422148;28;20193;-79
2022/09/29 22:27:25;;;;;;;5.47;4.17;;;;;;;9.80;49.24;99669.63;10408435;28;20276;-78
2022/09/29 22:32:49;;;;;;;8.47;4.77;;;;;;;9.41;49.94;99670.13;10407685;28;20334;-78
2022/09/29 22:38:11;;;;;;;6.07;4.47;;;;;;;10.00;48.84;99665.13;10421919;28;20184;-78
2022/09/29 22:43:33;;;;;;;4.70;4.17;;;;;;;9.84;48.42;99672.59;10421539;28;20478;-78
2022/09/29 22:48:55;;;;;;;5.80;4.60;;;;;;;9.34;49.47;99683.94;10421931;28;20188;-78
2022/09/29 22:54:17;;;;;;;5.07;4.00;;;;;;;9.50;48.49;99684.97;10421184;28;20208;-80
2022/09/29 22:59:39;;;;;;;5.27;4.10;;;;;;;9.70;48.34;99691.75;10421599;28;20246;-78
2022/09/29 23:05:01;;;;;;;4.40;4.00;;;;;;;9.25;50.05;99683.19;10420632;28;20184;-78
2022/09/29 23:10:23;;;;;;;5.43;3.90;;;;;;;8.95;49.74;99674.78;10420329;28;20239;-78
2022/09/29 23:15:46;;;;;;;7.87;4.23;;;;;;;9.10;49.23;99676.19;10419658;28;20290;-78
2022/09/29 23:21:09;;;;;;;4.77;3.40;;;;;;;9.36;48.92;99678.81;10419069;28;21014;-78
2022/09/29 23:26:31;;;;;;;7.47;4.33;;;;;;;9.25;48.49;99688.81;10419284;28;20568;-78
2022/09/29 23:31:53;;;;;;;5.40;4.10;;;;;;;9.01;49.61;99695.91;10419530;28;20517;-78
2022/09/29 23:37:15;;;;;;;4.90;3.57;;;;;;;8.89;49.79;99693.00;10405398;28;20277;-79
2022/09/29 23:42:37;;;;;;;6.13;4.23;;;;;;;9.00;49.66;99693.47;10420042;28;20185;-78
2022/09/29 23:47:59;;;;;;;8.20;4.30;;;;;;;8.74;49.98;99696.44;10405707;28;20188;-78
2022/09/29 23:53:21;;;;;;;4.37;3.80;;;;;;;8.71;49.41;99697.09;10418841;28;20262;-78
2022/09/29 23:58:43;;;;;;;5.37;3.80;;;;;;;9.13;48.60;99695.19;10418636;28;20193;-78
